Time;durP1;ratioP1;P1;durP2;ratioP2;P2;SDS_P1;SDS_P2;PMS_P1;PMS_P2;Temp;Humidity;BMP_temperature;BMP_pressure;BME280_temperature;BME280_humidity;BME280_pressure;Samples;Min_cycle;Max_cycle;Signal;HPM_P1;HPM_P2
2021/09/10 00:02:41;;;;;;;4.45;2.72;;;;;;;14.50;100.00;95023.16;10485971;28;20514;-74
2021/09/10 00:07:42;;;;;;;6.23;2.50;;;;;;;14.47;100.00;95029.13;10486533;28;20036;-73
2021/09/10 00:12:43;;;;;;;6.70;3.08;;;;;;;14.25;100.00;95033.19;10486382;28;20698;-74
2021/09/10 00:17:43;;;;;;;4.55;2.75;;;;;;;14.26;100.00;95034.81;10486098;28;20024;-73
2021/09/10 00:22:43;;;;;;;4.83;2.87;;;;;;;14.23;100.00;95035.34;10486209;28;20035;-73
2021/09/10 00:27:44;;;;;;;4.73;2.83;;;;;;;14.21;100.00;95026.75;10485998;28;20033;-74
2021/09/10 00:32:44;;;;;;;3.60;2.47;;;;;;;14.17;100.00;95033.81;10486228;28;20028;-74
2021/09/10 00:37:45;;;;;;;4.83;2.63;;;;;;;14.11;100.00;95029.56;10484695;28;20270;-73
2021/09/10 00:42:45;;;;;;;4.03;2.87;;;;;;;14.05;100.00;95028.84;10485996;28;20056;-73
2021/09/10 00:47:46;;;;;;;5.35;3.30;;;;;;;14.01;100.00;95027.78;10485898;28;20020;-74
2021/09/10 00:52:47;;;;;;;5.53;3.13;;;;;;;14.07;100.00;95018.53;10485560;28;20020;-74
2021/09/10 00:57:47;;;;;;;9.35;4.05;;;;;;;13.99;100.00;95019.94;10485155;28;20060;-73
2021/09/10 01:02:48;;;;;;;5.73;3.53;;;;;;;14.00;100.00;95018.88;10487239;28;20048;-74
2021/09/10 01:07:50;;;;;;;4.47;3.38;;;;;;;13.93;100.00;95018.41;10491557;28;20028;-74
2021/09/10 01:12:51;;;;;;;5.15;3.22;;;;;;;13.81;100.00;95026.09;10492652;28;20748;-74
2021/09/10 01:17:52;;;;;;;5.80;3.50;;;;;;;13.68;100.00;95030.28;10491915;28;20028;-73
2021/09/10 01:22:52;;;;;;;7.05;3.08;;;;;;;13.49;100.00;95019.38;10490752;28;20029;-73
2021/09/10 01:27:58;;;;;;;6.57;4.00;;;;;;;13.34;100.00;95014.91;10491511;28;20025;-73
2021/09/10 01:33:01;;;;;;;4.68;4.28;;;;;;;13.23;100.00;95005.28;10491049;28;20357;-74
2021/09/10 01:38:03;;;;;;;9.10;5.53;;;;;;;13.11;100.00;95006.44;10491936;28;20480;-73
2021/09/10 01:43:05;;;;;;;11.68;10.70;;;;;;;13.14;100.00;95008.59;10491487;28;20497;-73
2021/09/10 01:48:05;;;;;;;10.55;9.55;;;;;;;13.20;100.00;95009.38;10491248;28;20367;-73
2021/09/10 01:53:06;;;;;;;4.93;4.53;;;;;;;13.25;100.00;95013.91;10491347;28;20033;-73
2021/09/10 01:58:06;;;;;;;8.07;3.87;;;;;;;13.23;100.00;95011.50;10489473;28;20055;-73
2021/09/10 02:03:06;;;;;;;10.37;4.00;;;;;;;13.19;100.00;95004.25;10489936;28;20286;-74
2021/09/10 02:08:07;;;;;;;6.20;5.07;;;;;;;13.24;100.00;95007.72;10489833;28;20674;-74
2021/09/10 02:13:08;;;;;;;7.82;5.57;;;;;;;13.25;100.00;94997.72;10490274;28;20286;-73
2021/09/10 02:18:08;;;;;;;5.70;5.10;;;;;;;13.14;100.00;95000.50;10489925;28;20411;-74
2021/09/10 02:23:08;;;;;;;8.00;6.17;;;;;;;12.90;100.00;95010.41;10489343;28;20097;-73
2021/09/10 02:28:09;;;;;;;13.43;11.97;;;;;;;13.00;100.00;95007.63;10489556;28;20035;-74
2021/09/10 02:33:09;;;;;;;19.30;17.60;;;;;;;12.95;100.00;95015.78;10489953;28;20029;-74
2021/09/10 02:38:10;;;;;;;14.40;11.27;;;;;;;13.00;100.00;95021.09;10488162;28;20028;-73
2021/09/10 02:43:11;;;;;;;24.70;22.85;;;;;;;12.93;100.00;95024.13;10488317;28;20041;-73
2021/09/10 02:48:11;;;;;;;20.25;18.75;;;;;;;12.87;100.00;95019.84;10487788;28;20036;-74
2021/09/10 02:53:11;;;;;;;18.45;15.70;;;;;;;12.82;100.00;95018.00;10487535;28;20060;-74
2021/09/10 02:58:12;;;;;;;17.05;15.75;;;;;;;12.76;100.00;95029.91;10488365;28;20044;-73
2021/09/10 03:03:12;;;;;;;13.00;11.97;;;;;;;12.71;100.00;95016.47;10488277;28;20052;-74
2021/09/10 03:08:13;;;;;;;19.13;17.77;;;;;;;12.53;100.00;95026.00;10487826;28;20027;-73
2021/09/10 03:13:13;;;;;;;20.23;18.30;;;;;;;12.40;100.00;95032.00;10486666;28;20031;-73
2021/09/10 03:18:13;;;;;;;22.33;20.73;;;;;;;12.31;100.00;95034.47;10487658;28;20488;-73
2021/09/10 03:23:14;;;;;;;48.00;45.23;;;;;;;12.46;100.00;95037.09;10487255;28;20270;-74
2021/09/10 03:28:14;;;;;;;43.80;40.93;;;;;;;12.50;100.00;95031.94;10486802;28;20267;-74
2021/09/10 03:33:14;;;;;;;57.07;53.10;;;;;;;12.51;100.00;95032.75;10487182;28;20033;-74
2021/09/10 03:38:15;;;;;;;47.22;44.20;;;;;;;12.44;100.00;95039.25;10486819;28;20054;-73
2021/09/10 03:43:15;;;;;;;53.33;49.93;;;;;;;12.47;100.00;95038.72;10486190;28;20103;-73
2021/09/10 03:48:15;;;;;;;36.43;33.87;;;;;;;12.42;100.00;95035.22;10487201;28;20090;-74
2021/09/10 03:53:16;;;;;;;36.67;33.58;;;;;;;12.29;100.00;95037.44;10486446;28;20036;-74
2021/09/10 03:58:16;;;;;;;40.90;38.10;;;;;;;12.25;100.00;95046.34;10485771;28;20041;-73
2021/09/10 04:03:17;;;;;;;60.95;56.97;;;;;;;12.33;100.00;95043.06;10486350;28;20290;-73
2021/09/10 04:08:17;;;;;;;41.03;38.20;;;;;;;12.15;100.00;95041.78;10486286;28;20024;-74
2021/09/10 04:13:17;;;;;;;90.60;85.38;;;;;;;12.27;100.00;95046.88;10486039;28;20024;-74
2021/09/10 04:18:18;;;;;;;53.23;49.53;;;;;;;12.29;100.00;95055.47;10485869;28;20028;-74
2021/09/10 04:23:18;;;;;;;50.67;47.03;;;;;;;12.29;100.00;95060.88;10485988;28;20035;-73
2021/09/10 04:28:18;;;;;;;51.80;48.77;;;;;;;12.27;100.00;95057.66;10485488;28;20054;-73
2021/09/10 04:33:21;;;;;;;64.87;60.90;;;;;;;12.29;100.00;95059.00;10485721;28;20040;-73
2021/09/10 04:38:21;;;;;;;73.30;68.55;;;;;;;12.34;100.00;95058.16;10491297;28;20056;-74
2021/09/10 04:43:21;;;;;;;60.63;56.93;;;;;;;12.33;100.00;95056.56;10493294;28;20570;-74
2021/09/10 04:48:22;;;;;;;58.57;55.03;;;;;;;12.51;100.00;95057.81;10492889;28;20131;-73
2021/09/10 04:53:22;;;;;;;46.27;43.47;;;;;;;12.74;100.00;95052.84;10492923;28;20036;-73
2021/09/10 04:58:23;;;;;;;42.00;39.08;;;;;;;12.95;100.00;95061.63;10492145;28;20875;-73
2021/09/10 05:03:24;;;;;;;76.88;72.20;;;;;;;13.09;100.00;95064.47;10492540;28;20044;-73
2021/09/10 05:08:24;;;;;;;69.07;64.43;;;;;;;13.22;100.00;95055.75;10492707;28;20136;-73
2021/09/10 05:13:24;;;;;;;89.90;84.00;;;;;;;13.30;100.00;95054.38;10491872;28;20036;-73
2021/09/10 05:18:25;;;;;;;93.40;88.37;;;;;;;13.35;100.00;95048.94;10491730;28;20036;-73
2021/09/10 05:23:25;;;;;;;105.13;99.23;;;;;;;13.38;100.00;95053.78;10491956;28;20024;-73
2021/09/10 05:28:26;;;;;;;160.77;152.00;;;;;;;13.09;100.00;95056.38;10491264;28;20028;-73
2021/09/10 05:33:26;;;;;;;99.35;93.97;;;;;;;13.39;100.00;95054.59;10490630;28;20031;-73
2021/09/10 05:38:26;;;;;;;67.73;63.90;;;;;;;13.73;100.00;95057.25;10491489;28;20459;-73
2021/09/10 05:43:27;;;;;;;58.27;54.97;;;;;;;14.53;100.00;95057.72;10491004;28;20414;-73
2021/09/10 05:48:27;;;;;;;12.97;6.80;;;;;;;15.65;100.00;95053.66;10490146;28;20286;-73
2021/09/10 05:53:29;;;;;;;21.90;20.00;;;;;;;16.78;100.00;95050.72;10490797;28;20111;-74
2021/09/10 05:58:29;;;;;;;23.58;21.20;;;;;;;17.69;100.00;95038.81;10490076;28;20053;-74
2021/09/10 06:03:30;;;;;;;11.03;7.93;;;;;;;18.44;100.00;95040.94;10489116;28;20502;-74
2021/09/10 06:08:30;;;;;;;15.00;9.07;;;;;;;19.05;100.00;95032.13;10489029;28;20029;-74
2021/09/10 06:13:31;;;;;;;12.33;9.00;;;;;;;19.35;100.00;95035.00;10488663;28;20271;-74
2021/09/10 06:18:31;;;;;;;16.10;12.02;;;;;;;19.74;100.00;95035.91;10488507;28;20039;-74
2021/09/10 06:23:31;;;;;;;11.57;7.97;;;;;;;19.30;100.00;95042.22;10489372;28;20063;-74
2021/09/10 06:28:32;;;;;;;17.13;9.98;;;;;;;19.11;100.00;95025.38;10489593;28;20271;-74
2021/09/10 06:33:32;;;;;;;9.87;7.33;;;;;;;17.85;100.00;95028.34;10487531;28;20028;-74
2021/09/10 06:38:33;;;;;;;15.03;8.63;;;;;;;18.35;100.00;95032.75;10499435;28;20062;-74
2021/09/10 06:43:33;;;;;;;19.95;9.07;;;;;;;18.69;100.00;95033.16;10493204;28;20039;-74
2021/09/10 06:48:33;;;;;;;15.67;9.73;;;;;;;19.08;100.00;95037.72;10490128;28;20027;-74
2021/09/10 06:53:35;;;;;;;16.43;10.53;;;;;;;18.42;100.00;95035.03;10489985;28;20274;-74
2021/09/10 06:58:35;;;;;;;16.98;10.13;;;;;;;18.38;100.00;95034.06;10489019;28;20458;-74
2021/09/10 07:03:36;;;;;;;13.07;8.00;;;;;;;18.94;100.00;95040.59;10489300;28;20037;-74
2021/09/10 07:08:36;;;;;;;14.10;8.57;;;;;;;20.77;100.00;95037.78;10489503;28;20037;-74
2021/09/10 07:13:36;;;;;;;11.43;10.23;;;;;;;23.38;76.54;95036.06;10488961;28;20037;-72
2021/09/10 07:18:37;;;;;;;16.03;9.30;;;;;;;24.43;63.19;95033.34;10488992;28;20287;-72
2021/09/10 07:23:37;;;;;;;34.00;31.27;;;;;;;26.37;53.90;95031.19;10488824;28;20086;-74
2021/09/10 07:28:37;;;;;;;116.73;109.33;;;;;;;27.57;48.44;95036.50;10488587;28;20493;-73
2021/09/10 07:33:42;;;;;;;483.70;446.55;;;;;;;28.97;43.87;95020.50;10488500;28;20463;-74
2021/09/10 07:38:42;;;;;;;516.28;474.17;;;;;;;30.01;41.02;95022.97;10488566;28;20058;-74
2021/09/10 07:43:43;;;;;;;944.47;862.67;;;;;;;30.65;37.77;95019.50;10488828;28;20459;-74
2021/09/10 07:48:43;;;;;;;549.47;504.90;;;;;;;31.56;35.93;95022.16;10488308;28;20020;-74
2021/09/10 07:53:43;;;;;;;764.43;699.13;;;;;;;32.38;34.90;95016.19;10487586;28;20519;-74
2021/09/10 07:58:44;;;;;;;460.33;421.93;;;;;;;32.94;31.84;95018.16;10487049;28;20044;-74
2021/09/10 08:03:45;;;;;;;388.13;356.15;;;;;;;31.32;34.20;95022.63;10487793;28;20120;-74
2021/09/10 08:08:45;;;;;;;392.27;360.02;;;;;;;32.04;33.62;95019.56;10487578;28;20032;-76
2021/09/10 08:13:46;;;;;;;623.70;571.33;;;;;;;33.00;32.33;95016.53;10487116;28;20047;-76
2021/09/10 08:18:46;;;;;;;476.17;436.43;;;;;;;33.07;31.55;95010.06;10486404;28;20075;-77
2021/09/10 08:23:46;;;;;;;360.77;331.13;;;;;;;31.14;32.60;95014.31;10487244;28;20040;-75
2021/09/10 08:28:47;;;;;;;301.17;277.85;;;;;;;30.20;35.30;95012.72;10485468;28;20017;-75
2021/09/10 08:33:47;;;;;;;422.10;387.53;;;;;;;31.26;33.80;95009.53;10486925;28;20020;-75
2021/09/10 08:38:47;;;;;;;943.40;859.17;;;;;;;32.76;30.40;95001.63;10484689;28;20801;-75
2021/09/10 08:43:49;;;;;;;1100.00;995.80;;;;;;;31.34;32.05;95002.75;10485900;28;20024;-75
2021/09/10 08:48:49;;;;;;;1093.47;993.10;;;;;;;31.65;32.24;94992.00;10486322;28;20111;-75
2021/09/10 08:53:49;;;;;;;308.57;284.70;;;;;;;30.27;33.44;94985.03;10485248;28;20032;-75
2021/09/10 08:58:50;;;;;;;222.60;207.07;;;;;;;29.09;34.24;94984.19;10486429;28;20043;-74
2021/09/10 09:03:56;;;;;;;247.40;229.50;;;;;;;27.77;37.32;94984.66;10486592;28;20059;-75
2021/09/10 09:08:56;;;;;;;231.63;215.82;;;;;;;27.95;36.11;94980.13;10486368;28;20043;-74
2021/09/10 09:14:02;;;;;;;254.77;236.77;;;;;;;30.40;32.18;94966.78;10486220;28;20376;-74
2021/09/10 09:19:05;;;;;;;279.23;258.48;;;;;;;30.92;32.42;94979.44;10486063;28;20028;-75
2021/09/10 09:24:20;;;;;;;227.55;211.40;;;;;;;29.01;34.41;94979.00;10489070;28;20043;-75
2021/09/10 09:29:22;;;;;;;230.27;213.65;;;;;;;27.97;35.43;94971.44;10493279;28;20028;-75
2021/09/10 09:34:50;;;;;;;187.55;174.73;;;;;;;27.88;35.57;94968.19;10493102;28;20032;-74
2021/09/10 09:39:52;;;;;;;190.10;176.85;;;;;;;28.01;36.90;94960.47;10491190;28;20399;-75
2021/09/10 09:45:10;;;;;;;270.85;250.95;;;;;;;29.28;33.74;94954.66;10493101;28;20029;-75
2021/09/10 09:50:13;;;;;;;472.02;432.90;;;;;;;30.72;33.69;94954.13;10492793;28;20028;-75
2021/09/10 09:55:14;;;;;;;955.10;869.33;;;;;;;33.61;28.69;94945.41;10492156;28;20028;-75
2021/09/10 10:00:15;;;;;;;1138.93;999.90;;;;;;;35.72;24.92;94933.88;10492008;28;20431;-75
2021/09/10 10:05:17;;;;;;;1018.70;925.83;;;;;;;36.81;23.75;94929.38;10491922;28;20106;-75
2021/09/10 10:10:24;;;;;;;932.92;845.95;;;;;;;37.44;21.69;94924.47;10491830;28;20461;-75
2021/09/10 10:15:27;;;;;;;786.28;715.00;;;;;;;37.56;21.27;94912.50;10491502;28;20032;-75
2021/09/10 10:20:46;;;;;;;826.08;750.78;;;;;;;37.68;22.43;94913.75;10491266;28;20120;-75
2021/09/10 10:26:07;;;;;;;830.92;754.88;;;;;;;36.17;22.22;94924.13;10491046;28;20029;-75
2021/09/10 10:31:07;;;;;;;688.25;626.78;;;;;;;36.13;21.07;94917.00;10490921;28;20036;-74
2021/09/10 10:36:36;;;;;;;566.13;515.97;;;;;;;35.93;19.87;94915.06;10490729;28;20036;-74
2021/09/10 10:42:01;;;;;;;489.00;445.92;;;;;;;35.61;22.17;94910.94;10490752;28;20072;-74
2021/09/10 10:47:08;;;;;;;554.30;506.17;;;;;;;36.37;19.64;94900.88;10489961;28;20020;-74
2021/09/10 10:52:31;;;;;;;546.72;499.27;;;;;;;36.26;21.85;94896.28;10490305;28;20024;-74
2021/09/10 10:57:34;;;;;;;444.25;405.33;;;;;;;34.64;23.57;94882.13;10489331;28;20060;-74
2021/09/10 11:02:38;;;;;;;519.42;473.42;;;;;;;34.51;25.04;94884.72;10489100;28;20169;-75
2021/09/10 11:07:38;;;;;;;604.42;551.20;;;;;;;35.32;22.02;94886.44;10488897;28;20032;-75
2021/09/10 11:12:40;;;;;;;462.73;422.20;;;;;;;35.82;21.17;94890.16;10489070;28;20024;-74
2021/09/10 11:17:42;;;;;;;389.25;356.15;;;;;;;33.63;22.08;94887.25;10489104;28;20028;-74
2021/09/10 11:22:47;;;;;;;318.80;293.00;;;;;;;31.83;25.16;94877.91;10488213;28;20037;-74
2021/09/10 11:27:47;;;;;;;294.42;271.52;;;;;;;29.40;28.59;94887.06;10488170;28;20033;-74
2021/09/10 11:33:00;;;;;;;213.37;198.47;;;;;;;27.79;30.40;94885.66;10488279;28;20025;-74
2021/09/10 11:38:03;;;;;;;158.30;148.40;;;;;;;27.02;31.78;94886.00;10488304;28;20381;-74
2021/09/10 11:43:12;;;;;;;233.60;217.57;;;;;;;25.78;33.58;94881.78;10487862;28;20032;-74
2021/09/10 11:48:18;;;;;;;184.50;172.45;;;;;;;25.15;33.69;94870.03;10487109;28;20021;-74
2021/09/10 11:53:36;;;;;;;168.25;158.02;;;;;;;25.14;34.86;94867.66;10487684;28;20020;-74
2021/09/10 11:58:44;;;;;;;201.67;188.57;;;;;;;24.21;35.98;94880.97;10486954;28;20105;-74
2021/09/10 12:04:08;;;;;;;210.65;196.88;;;;;;;23.95;37.67;94867.84;10488000;28;20474;-75
2021/09/10 12:09:15;;;;;;;186.23;174.55;;;;;;;23.77;36.76;94865.41;10486451;28;20055;-73
2021/09/10 12:14:15;;;;;;;183.52;171.40;;;;;;;23.79;38.64;94862.31;10487239;28;20028;-74
2021/09/10 12:19:16;;;;;;;205.60;192.32;;;;;;;23.70;36.16;94860.53;10487562;28;20032;-74
2021/09/10 12:24:18;;;;;;;259.47;241.87;;;;;;;23.90;35.17;94863.41;10486900;28;20119;-73
2021/09/10 12:29:28;;;;;;;231.98;216.82;;;;;;;24.06;35.81;94853.19;10494134;28;20043;-74
2021/09/10 12:34:28;;;;;;;339.63;314.23;;;;;;;24.17;36.56;94852.66;10486899;28;20031;-74
2021/09/10 12:39:30;;;;;;;312.03;289.33;;;;;;;24.26;34.76;94864.22;10486753;28;20028;-74
2021/09/10 12:44:30;;;;;;;247.73;230.98;;;;;;;24.68;36.34;94855.34;10486843;28;20414;-74
2021/09/10 12:49:30;;;;;;;308.60;286.33;;;;;;;24.82;34.83;94849.34;10485567;28;20031;-73
2021/09/10 12:54:33;;;;;;;315.90;292.97;;;;;;;24.88;36.28;94850.66;10486416;28;20056;-74
2021/09/10 12:59:33;;;;;;;296.88;275.40;;;;;;;24.97;38.52;94846.91;10490542;28;20048;-73
2021/09/10 13:04:33;;;;;;;315.03;291.93;;;;;;;24.64;35.80;94846.22;10492986;28;20036;-73
2021/09/10 13:09:34;;;;;;;273.43;254.37;;;;;;;24.50;37.36;94845.91;10494138;28;20170;-74
2021/09/10 13:14:34;;;;;;;294.05;272.17;;;;;;;24.65;36.86;94844.31;10494155;28;20048;-73
2021/09/10 13:19:35;;;;;;;275.07;255.70;;;;;;;24.80;35.49;94837.94;10493689;28;20041;-74
2021/09/10 13:24:36;;;;;;;264.47;245.87;;;;;;;24.53;35.13;94835.00;10493269;28;20115;-74
2021/09/10 13:29:36;;;;;;;286.75;266.52;;;;;;;24.40;37.83;94837.06;10493500;28;20055;-74
2021/09/10 13:34:38;;;;;;;299.25;277.90;;;;;;;24.15;35.90;94835.75;10492617;28;20037;-74
2021/09/10 13:39:40;;;;;;;248.38;231.55;;;;;;;24.25;36.67;94840.66;10492824;28;20036;-74
2021/09/10 13:44:40;;;;;;;319.63;296.27;;;;;;;24.29;35.20;94838.00;10492895;28;20032;-74
2021/09/10 13:49:41;;;;;;;401.37;369.97;;;;;;;24.44;35.74;94830.88;10491817;28;20032;-74
2021/09/10 13:54:41;;;;;;;375.13;346.42;;;;;;;24.38;34.54;94838.59;10491025;28;20025;-75
2021/09/10 13:59:42;;;;;;;374.42;345.63;;;;;;;24.26;35.67;94830.50;10491274;28;20563;-74
2021/09/10 14:04:42;;;;;;;406.37;375.33;;;;;;;24.21;34.97;94828.78;10492431;28;20024;-74
2021/09/10 14:09:43;;;;;;;457.97;423.00;;;;;;;24.10;35.43;94822.28;10491136;28;20111;-74
2021/09/10 14:14:43;;;;;;;354.27;328.35;;;;;;;23.88;37.42;94830.81;10491200;28;20039;-74
2021/09/10 14:19:43;;;;;;;393.07;363.33;;;;;;;23.66;35.86;94826.72;10491179;28;20029;-74
2021/09/10 14:24:45;;;;;;;360.75;333.92;;;;;;;23.41;35.00;94822.59;10490690;28;20062;-75
2021/09/10 14:29:46;;;;;;;215.15;201.27;;;;;;;23.31;36.30;94832.13;10490332;28;20107;-74
2021/09/10 14:34:47;;;;;;;275.57;256.57;;;;;;;23.13;35.69;94831.66;10490135;28;20037;-74
2021/09/10 14:39:48;;;;;;;316.73;294.13;;;;;;;22.91;35.98;94835.75;10489609;28;20021;-74
2021/09/10 14:44:48;;;;;;;334.73;310.40;;;;;;;23.02;36.21;94837.66;10489682;28;20468;-74
2021/09/10 14:49:48;;;;;;;356.57;330.50;;;;;;;23.13;36.90;94828.94;10489752;28;20047;-75
2021/09/10 14:54:49;;;;;;;365.13;338.47;;;;;;;23.21;36.40;94827.97;10489503;28;20020;-75
2021/09/10 15:00:00;;;;;;;389.02;360.13;;;;;;;23.07;35.73;94833.06;10487787;28;20503;-75
2021/09/10 15:05:01;;;;;;;299.23;278.15;;;;;;;22.76;36.13;94829.88;10489212;28;20036;-75
2021/09/10 15:10:01;;;;;;;346.27;320.87;;;;;;;22.62;38.65;94829.47;10489351;28;20441;-75
2021/09/10 15:15:02;;;;;;;257.67;240.47;;;;;;;22.39;37.24;94832.72;10488736;28;20476;-75
2021/09/10 15:20:04;;;;;;;347.52;322.05;;;;;;;22.30;36.94;94841.06;10487816;28;20060;-75
2021/09/10 15:25:05;;;;;;;330.27;306.67;;;;;;;22.27;36.79;94843.69;10487387;28;20036;-75
2021/09/10 15:30:06;;;;;;;394.17;365.58;;;;;;;22.29;37.84;94842.19;10488611;28;20024;-75
2021/09/10 15:35:07;;;;;;;358.55;332.58;;;;;;;22.35;37.09;94837.31;10487560;28;20032;-75
2021/09/10 15:40:08;;;;;;;380.98;353.23;;;;;;;22.28;37.59;94832.38;10488008;28;20032;-75
2021/09/10 15:45:08;;;;;;;478.02;443.05;;;;;;;22.25;38.05;94830.34;10487794;28;20035;-74
2021/09/10 15:50:09;;;;;;;373.58;346.05;;;;;;;22.05;38.32;94831.28;10487935;28;20028;-75
2021/09/10 15:55:13;;;;;;;319.67;297.08;;;;;;;21.93;38.36;94835.63;10488338;28;20120;-75
2021/09/10 16:00:17;;;;;;;224.05;209.05;;;;;;;21.76;39.01;94842.13;10487431;28;20048;-74
2021/09/10 16:05:21;;;;;;;320.63;297.65;;;;;;;21.53;39.47;94839.06;10486641;28;20036;-75
2021/09/10 16:10:23;;;;;;;291.92;271.70;;;;;;;21.39;38.98;94839.38;10487471;28;20039;-75
2021/09/10 16:15:24;;;;;;;217.63;203.93;;;;;;;21.23;39.10;94839.22;10487652;28;20067;-75
2021/09/10 16:20:25;;;;;;;118.70;111.28;;;;;;;21.05;39.39;94844.06;10487428;28;20380;-74
2021/09/10 16:25:25;;;;;;;123.70;116.97;;;;;;;20.91;39.79;94838.09;10486986;28;20028;-75
2021/09/10 16:30:26;;;;;;;151.20;141.83;;;;;;;20.81;41.62;94858.44;10487204;28;20120;-74
2021/09/10 16:35:26;;;;;;;134.63;126.88;;;;;;;20.63;39.87;94860.50;10494510;28;20036;-74
2021/09/10 16:40:27;;;;;;;186.97;175.13;;;;;;;20.41;40.65;94875.28;10495205;28;20041;-74
2021/09/10 16:45:27;;;;;;;240.50;225.10;;;;;;;20.18;42.52;94881.06;10494658;28;20765;-74
2021/09/10 16:50:28;;;;;;;227.13;212.70;;;;;;;20.09;42.28;94880.31;10494784;28;20024;-74
2021/09/10 16:55:28;;;;;;;264.70;247.18;;;;;;;20.08;44.22;94889.63;10494328;28;20035;-74
2021/09/10 17:00:28;;;;;;;254.60;237.87;;;;;;;20.03;46.31;94892.56;10494202;28;20105;-74
2021/09/10 17:05:29;;;;;;;203.73;191.33;;;;;;;19.79;46.74;94889.28;10494216;28;20024;-74
2021/09/10 17:10:29;;;;;;;172.90;162.43;;;;;;;19.70;48.13;94898.59;10491944;28;20035;-74
2021/09/10 17:15:30;;;;;;;201.67;189.33;;;;;;;19.63;51.88;94902.66;10492640;28;20028;-74
2021/09/10 17:20:30;;;;;;;180.57;169.25;;;;;;;19.43;54.66;94904.16;10491964;28;20137;-74
2021/09/10 17:25:30;;;;;;;167.30;157.13;;;;;;;19.33;56.53;94912.69;10492166;28;20089;-75
2021/09/10 17:30:32;;;;;;;163.27;152.95;;;;;;;19.26;59.70;94918.63;10491806;28;20032;-74
2021/09/10 17:35:33;;;;;;;163.27;153.35;;;;;;;19.19;59.80;94934.66;10491666;28;20032;-74
2021/09/10 17:40:33;;;;;;;196.45;183.48;;;;;;;19.15;62.65;94936.44;10491577;28;20033;-74
2021/09/10 17:45:33;;;;;;;179.07;167.82;;;;;;;19.17;71.23;94944.28;10490095;28;20024;-76
2021/09/10 17:50:34;;;;;;;193.83;181.73;;;;;;;18.95;72.41;94944.16;10491190;28;20492;-74
2021/09/10 17:55:34;;;;;;;192.23;180.37;;;;;;;18.92;72.91;94939.34;10490466;28;20032;-75
2021/09/10 18:00:35;;;;;;;131.83;124.53;;;;;;;18.67;61.85;94932.75;10490300;28;20051;-74
2021/09/10 18:05:37;;;;;;;140.20;131.82;;;;;;;18.65;67.86;94942.34;10490632;28;20274;-74
2021/09/10 18:10:38;;;;;;;171.02;161.05;;;;;;;18.44;64.86;94962.81;10490714;28;20032;-74
2021/09/10 18:15:39;;;;;;;169.75;159.43;;;;;;;18.36;65.93;94960.88;10490254;28;20085;-74
2021/09/10 18:20:39;;;;;;;200.83;188.33;;;;;;;18.36;73.54;94965.53;10489940;28;20082;-74
2021/09/10 18:25:40;;;;;;;237.07;222.55;;;;;;;18.28;67.43;94965.19;10490224;28;20107;-74
2021/09/10 18:30:40;;;;;;;217.77;204.57;;;;;;;18.22;64.90;94971.91;10489558;28;20373;-74
2021/09/10 18:35:41;;;;;;;210.43;197.23;;;;;;;18.07;66.51;94966.88;10489578;28;20452;-74
2021/09/10 18:40:41;;;;;;;226.77;212.80;;;;;;;18.06;71.03;94963.38;10489476;28;20025;-74
2021/09/10 18:45:42;;;;;;;203.60;191.67;;;;;;;17.99;72.32;94962.22;10488973;28;20294;-75
2021/09/10 18:50:42;;;;;;;239.57;225.15;;;;;;;17.90;68.05;94959.44;10488008;28;20479;-74
2021/09/10 18:55:43;;;;;;;263.40;247.07;;;;;;;17.81;68.65;94959.41;10487175;28;20028;-74
2021/09/10 19:00:43;;;;;;;287.48;269.52;;;;;;;17.71;69.55;94962.41;10488114;28;20048;-74
2021/09/10 19:05:44;;;;;;;275.90;258.63;;;;;;;17.35;74.22;94966.06;10488263;28;20036;-74
2021/09/10 19:10:44;;;;;;;488.70;456.48;;;;;;;17.17;77.85;94968.63;10487977;28;20028;-74
2021/09/10 19:15:45;;;;;;;471.30;440.60;;;;;;;17.15;77.36;94970.88;10485893;28;20025;-74
2021/09/10 19:20:45;;;;;;;345.87;323.60;;;;;;;17.15;76.59;94965.44;10487817;28;20028;-74
2021/09/10 19:25:46;;;;;;;344.93;323.03;;;;;;;17.20;74.09;94967.22;10487221;28;20750;-74
2021/09/10 19:30:47;;;;;;;345.77;323.83;;;;;;;17.14;73.70;94969.25;10487599;28;20032;-74
2021/09/10 19:35:47;;;;;;;419.13;392.33;;;;;;;16.91;75.71;94963.84;10487203;28;20675;-74
2021/09/10 19:40:50;;;;;;;324.45;304.27;;;;;;;16.71;79.02;94972.41;10487091;28;20025;-74
2021/09/10 19:45:50;;;;;;;266.17;250.40;;;;;;;16.64;79.37;94974.75;10487112;28;20669;-74
2021/09/10 19:50:51;;;;;;;281.23;264.33;;;;;;;16.52;81.66;94973.38;10486579;28;20032;-74
2021/09/10 19:55:52;;;;;;;373.57;350.13;;;;;;;16.54;80.04;94975.78;10486522;28;20028;-74
2021/09/10 20:00:52;;;;;;;385.08;360.42;;;;;;;16.48;80.17;94968.84;10486191;28;20302;-74
2021/09/10 20:05:53;;;;;;;385.20;360.73;;;;;;;16.33;79.31;94975.41;10484468;28;20048;-74
2021/09/10 20:10:53;;;;;;;363.33;341.17;;;;;;;16.33;76.94;94975.41;10485672;28;20024;-74
2021/09/10 20:15:53;;;;;;;370.37;346.97;;;;;;;16.33;73.43;94973.50;10485834;28;20028;-74
2021/09/10 20:20:54;;;;;;;406.87;381.30;;;;;;;16.34;73.12;94963.44;10486319;28;20103;-74
2021/09/10 20:25:54;;;;;;;368.00;345.20;;;;;;;16.25;75.41;94968.00;10486153;28;20501;-74
2021/09/10 20:30:55;;;;;;;385.20;359.87;;;;;;;16.13;79.02;94972.03;10485995;28;20035;-74
2021/09/10 20:35:55;;;;;;;348.25;327.08;;;;;;;16.02;77.52;94979.56;10486593;28;20036;-74
2021/09/10 20:40:55;;;;;;;356.97;335.20;;;;;;;15.99;81.18;94973.91;10485783;28;20032;-74
2021/09/10 20:45:56;;;;;;;372.63;349.67;;;;;;;15.94;78.54;94972.13;10485645;28;20028;-74
2021/09/10 20:50:57;;;;;;;371.25;348.38;;;;;;;15.85;78.10;94973.91;10485971;28;20469;-74
2021/09/10 20:55:58;;;;;;;363.95;341.80;;;;;;;15.83;78.74;94978.84;10485516;28;20113;-74
2021/09/10 21:00:58;;;;;;;423.00;396.65;;;;;;;15.78;80.37;94985.16;10484865;28;20426;-74
2021/09/10 21:05:58;;;;;;;414.40;389.13;;;;;;;15.59;82.54;94984.41;10485546;28;20119;-74
2021/09/10 21:10:59;;;;;;;323.37;303.97;;;;;;;15.49;83.96;94988.91;10485219;28;20297;-74
2021/09/10 21:15:59;;;;;;;313.37;294.60;;;;;;;15.43;85.03;94978.47;10485191;28;20285;-74
2021/09/10 21:20:59;;;;;;;323.20;303.90;;;;;;;15.38;87.33;94982.06;10489951;28;20059;-74
2021/09/10 21:26:00;;;;;;;348.30;327.13;;;;;;;15.28;89.29;94995.75;10492479;28;20386;-74
2021/09/10 21:31:00;;;;;;;377.73;354.53;;;;;;;15.25;96.39;94990.94;10492062;28;20029;-74
2021/09/10 21:36:01;;;;;;;380.43;357.20;;;;;;;15.18;98.65;94989.44;10492154;28;20089;-74
2021/09/10 21:41:01;;;;;;;406.83;381.40;;;;;;;15.08;98.89;94995.00;10491078;28;20291;-74
2021/09/10 21:46:01;;;;;;;405.23;380.03;;;;;;;14.93;100.00;94987.94;10491717;28;20658;-74
2021/09/10 21:51:02;;;;;;;404.43;379.60;;;;;;;14.88;100.00;94989.91;10490769;28;20073;-74
2021/09/10 21:56:03;;;;;;;427.08;400.45;;;;;;;14.72;100.00;94989.31;10491398;28;20032;-74
2021/09/10 22:01:03;;;;;;;371.25;348.90;;;;;;;14.65;100.00;94993.22;10490711;28;20121;-73
2021/09/10 22:06:03;;;;;;;336.33;315.83;;;;;;;14.49;100.00;94997.97;10490819;28;20032;-74
2021/09/10 22:11:04;;;;;;;390.53;367.00;;;;;;;14.39;100.00;94986.53;10490858;28;20025;-74
2021/09/10 22:16:05;;;;;;;335.52;315.15;;;;;;;14.29;100.00;94982.03;10487718;28;20125;-73
2021/09/10 22:21:05;;;;;;;369.00;347.37;;;;;;;14.21;100.00;94980.00;10489942;28;20033;-73
2021/09/10 22:26:07;;;;;;;415.30;390.10;;;;;;;14.05;100.00;94982.88;10489494;28;20692;-73